地図

経路データ

SID SEASON NUMBER BASIN SUBBASIN NAME ISO_TIME NATURE LAT LON WMO_WIND WMO_PRES WMO_AGENCY TRACK_TYPE DIST2LAND LANDFALL IFLAG USA_AGENCY USA_ATCF_ID USA_LAT USA_LON USA_RECORD USA_STATUS USA_WIND USA_PRES USA_SSHS USA_R34_NE USA_R34_SE USA_R34_SW USA_R34_NW USA_R50_NE USA_R50_SE USA_R50_SW USA_R50_NW USA_R64_NE USA_R64_SE USA_R64_SW USA_R64_NW USA_POCI USA_ROCI USA_RMW USA_EYE TOKYO_LAT TOKYO_LON TOKYO_GRADE TOKYO_WIND TOKYO_PRES TOKYO_R50_DIR TOKYO_R50_LONG TOKYO_R50_SHORT TOKYO_R30_DIR TOKYO_R30_LONG TOKYO_R30_SHORT TOKYO_LAND CMA_LAT CMA_LON CMA_CAT CMA_WIND CMA_PRES HKO_LAT HKO_LON HKO_CAT HKO_WIND HKO_PRES NEWDELHI_LAT NEWDELHI_LON NEWDELHI_GRADE NEWDELHI_WIND NEWDELHI_PRES NEWDELHI_CI NEWDELHI_DP NEWDELHI_POCI REUNION_LAT REUNION_LON REUNION_TYPE REUNION_WIND REUNION_PRES REUNION_TNUM REUNION_CI REUNION_RMW REUNION_R34_NE REUNION_R34_SE REUNION_R34_SW REUNION_R34_NW REUNION_R50_NE REUNION_R50_SE REUNION_R50_SW REUNION_R50_NW REUNION_R64_NE REUNION_R64_SE REUNION_R64_SW REUNION_R64_NW BOM_LAT BOM_LON BOM_TYPE BOM_WIND BOM_PRES BOM_TNUM BOM_CI BOM_RMW BOM_R34_NE BOM_R34_SE BOM_R34_SW BOM_R34_NW BOM_R50_NE BOM_R50_SE BOM_R50_SW BOM_R50_NW BOM_R64_NE BOM_R64_SE BOM_R64_SW BOM_R64_NW BOM_ROCI BOM_POCI BOM_EYE BOM_POS_METHOD BOM_PRES_METHOD NADI_LAT NADI_LON NADI_CAT NADI_WIND NADI_PRES WELLINGTON_LAT WELLINGTON_LON WELLINGTON_WIND WELLINGTON_PRES DS824_LAT DS824_LON DS824_STAGE DS824_WIND DS824_PRES TD9636_LAT TD9636_LON TD9636_STAGE TD9636_WIND TD9636_PRES TD9635_LAT TD9635_LON TD9635_WIND TD9635_PRES TD9635_ROCI NEUMANN_LAT NEUMANN_LON NEUMANN_CLASS NEUMANN_WIND NEUMANN_PRES MLC_LAT MLC_LON MLC_CLASS MLC_WIND MLC_PRES USA_GUST BOM_GUST BOM_GUST_PER REUNION_GUST REUNION_GUST_PER USA_SEAHGT USA_SEARAD_NE USA_SEARAD_SE USA_SEARAD_SW USA_SEARAD_NW STORM_SPEED STORM_DIR
1891307N24286 1891 55 NA NA NOT_NAMED 1891-11-03 00:00:00 TS 24.1000 -73.8000 35 hurdat_atl spur-merge 329 329 O_____________ hurdat_atl AL101891 24.1000 -73.8000 TS 35 0 16 53
1891307N24286 1891 55 NA NA NOT_NAMED 1891-11-03 03:00:00 TS 24.5810 -73.1018 spur-merge 380 380 P_____________ AL101891 24.5810 -73.1018 TS 35 0 15 53
1891307N24286 1891 55 NA NA NOT_NAMED 1891-11-03 06:00:00 TS 25.0000 -72.5000 35 hurdat_atl spur-merge 427 427 O_____________ hurdat_atl AL101891 25.0000 -72.5000 TS 35 0 12 52
1891307N24286 1891 55 NA NA NOT_NAMED 1891-11-03 09:00:00 TS 25.3342 -72.0486 spur-merge 469 469 P_____________ AL101891 25.3342 -72.0486 TS 37 0 11 49
1891307N24286 1891 55 NA NA NOT_NAMED 1891-11-03 12:00:00 TS 25.7000 -71.6000 40 hurdat_atl spur-merge 522 522 O_____________ hurdat_atl AL101891 25.7000 -71.6000 TS 40 0 13 47
1891307N24286 1891 55 NA NA NOT_NAMED 1891-11-03 15:00:00 TS 26.2198 -71.0023 spur-merge 594 594 P_____________ AL101891 26.2198 -71.0023 TS 42 0 16 47
1891307N24286 1891 55 NA NA NOT_NAMED 1891-11-03 18:00:00 TS 26.8000 -70.3000 45 hurdat_atl spur-merge 683 683 O_____________ hurdat_atl AL101891 26.8000 -70.3000 TS 45 0 17 49
1891307N24286 1891 55 NA NA NOT_NAMED 1891-11-03 21:00:00 TS 27.3420 -69.5440 spur-merge 768 768 P_____________ AL101891 27.3420 -69.5440 TS 45 0 18 52
1891307N24286 1891 55 NA NA NOT_NAMED 1891-11-04 00:00:00 TS 27.9000 -68.7000 45 hurdat_atl spur-merge 865 865 O_____________ hurdat_atl AL101891 27.9000 -68.7000 TS 45 0 19 53
1891307N24286 1891 55 NA NA NOT_NAMED 1891-11-04 03:00:00 TS 28.4995 -67.7869 spur-merge 969 969 P_____________ AL101891 28.4995 -67.7869 TS 47 0 21 54
1891307N24286 1891 55 NA NA NOT_NAMED 1891-11-04 06:00:00 TS 29.1000 -66.8000 50 hurdat_atl spur-merge 1080 1080 O_____________ hurdat_atl AL101891 29.1000 -66.8000 TS 50 0 21 56
1891307N24286 1891 55 NA NA NOT_NAMED 1891-11-04 09:00:00 TS 29.6561 -65.8007 spur-merge 1131 1131 P_____________ AL101891 29.6561 -65.8007 TS 50 0 21 59
1891307N24286 1891 55 NA NA NOT_NAMED 1891-11-04 12:00:00 TS 30.2000 -64.7000 50 hurdat_atl spur-merge 1182 1182 O_____________ hurdat_atl AL101891 30.2000 -64.7000 TS 50 0 23 62
1891307N24286 1891 55 NA NA NOT_NAMED 1891-11-04 15:00:00 TS 30.7416 -63.4583 spur-merge 1249 1249 P_____________ AL101891 30.7416 -63.4583 TS 50 0 25 64
1891307N24286 1891 55 NA NA NOT_NAMED 1891-11-04 18:00:00 TS 31.3000 -62.1000 50 hurdat_atl spur-merge 1335 1335 O_____________ hurdat_atl AL101891 31.3000 -62.1000 TS 50 0 26 64
1891307N24286 1891 55 NA NA NOT_NAMED 1891-11-04 21:00:00 TS 31.8839 -60.6783 spur-merge 1352 1331 P_____________ AL101891 31.8839 -60.6783 TS 50 0 27 64
1891307N24286 1891 55 NA NA NOT_NAMED 1891-11-05 00:00:00 TS 32.5000 -59.2000 50 hurdat_atl spur-merge 1334 1325 O_____________ hurdat_atl AL101891 32.5000 -59.2000 TS 50 0 28 64
1891307N24286 1891 55 NA NA NOT_NAMED 1891-11-05 03:00:00 TS 33.1350 -57.6616 spur-merge 1332 1324 P_____________ AL101891 33.1350 -57.6616 TS 50 0 28 63
1891307N24286 1891 55 NA NA NOT_NAMED 1891-11-05 06:00:00 TS 33.8000 -56.2000 50 hurdat_atl spur-merge 1335 1312 O_____________ hurdat_atl AL101891 33.8000 -56.2000 TS 50 0 26 61
1891307N24286 1891 55 NA NA NOT_NAMED 1891-11-05 09:00:00 TS 34.3846 -54.9619 spur-merge 1308 1277 P_____________ AL101891 34.3846 -54.9619 TS 47 0 24 55
1891307N24286 1891 55 NA NA NOT_NAMED 1891-11-05 12:00:00 TS 35.2000 -53.8000 45 hurdat_atl spur-merge 1268 1135 O_____________ hurdat_atl AL101891 35.2000 -53.8000 TS 45 0 29 45
1891307N24286 1891 55 NA NA NOT_NAMED 1891-11-05 15:00:00 TS 36.4355 -52.4845 spur-merge 1136 979 P_____________ AL101891 36.4355 -52.4845 TS 42 0 35 37
1891307N24286 1891 55 NA NA NOT_NAMED 1891-11-05 18:00:00 TS 38.0000 -51.2000 40 hurdat_atl spur-merge 970 806 O_____________ hurdat_atl AL101891 38.0000 -51.2000 TS 40 0 38 30
1891307N24286 1891 55 NA NA NOT_NAMED 1891-11-05 21:00:00 TS 39.7555 -50.0644 spur-merge 796 653 P_____________ AL101891 39.7555 -50.0644 TS 37 0 40 25
1891307N24286 1891 55 NA NA NOT_NAMED 1891-11-06 00:00:00 TS 41.6000 -49.0000 35 hurdat_atl spur-merge 648 O_____________ hurdat_atl AL101891 41.6000 -49.0000 TS 35 0 40 23

IBTrACS Databaseについて

本データベースは、米国NOAAが公開する1842年以降の世界の熱帯低気圧のベストトラックデータアーカイブInternational Best Track Archive for Climate Stewardship (IBTrACS)を、ウェブで閲覧しやすい形式に変換したものです。

最終更新日:2021-12-01